Terminal Aerodrome Forecast
Issued by NWS Duluth, MN

Home | Current Version | Previous Version | Text Only | Print | Product List | Glossary On
Versions: 1 2 3 4 5 6 7 8 9 10 11 12 13 14 15 16 17 18 19 20 21 22 23 24 25 26 27 28 29 30 31 32
000
FTUS43 KDLH 280500
TAFINL
TAF
KINL 280525Z 2806/2906 VRB04KT P6SM SKC
     FM281500 17006KT P6SM SCT040
     FM281900 19007G12KT P6SM SCT050
     FM290100 19006KT P6SM SCT035 BKN050=

USA.gov is the U.S. government's official web portal to all federal, state and local government web resources and services.